CYBW/YBW METAR and TAF weather

Enter ICAO airport designator
Station Type Date Time Source
CYBW METAR 2021/09/24 07:00 UTC NOAA

CYBW 240700Z AUTO 19009KT 9SM CLR 03/M01 A3023 RMK SLP265


Station Type Date Time Source
CYBW Decoded METAR 2021/09/24 07:00 UTC NOAA

Calgary / Springbank, Canada (CYBW) 51-06N 114-22W
Sep 24, 2021 - 03:00 AM EDT / 2021.09.24 0700 UTC
Wind: from the S (190 degrees) at 10 MPH (9 KT):0
Visibility: 9 mile(s):0
Sky conditions: clear
Temperature: 37 F (3 C)
Dew Point: 30 F (-1 C)
Relative Humidity: 74%
Pressure (altimeter): 30.23 in. Hg (1023 hPa)
ob: CYBW 240700Z AUTO 19009KT 9SM CLR 03/M01 A3023 RMK SLP265
cycle: 7

Station Type Date Time Source
CYBW TAF 2021/09/23 20:51 UTC NOAA

TAF
AMD TAF
AMD CYBW 232050Z 2320/2404 14012KT P6SM SCT120 BKN280
FM240000 07010KT P6SM FEW240
RMK FCST BASED ON AUTO OBS. NXT FCST BY 240000Z

Example: see airport list